Time;durP1;ratioP1;P1;durP2;ratioP2;P2;SDS_P1;SDS_P2;PMS_P1;PMS_P2;Temp;Humidity;BMP_temperature;BMP_pressure;BME280_temperature;BME280_humidity;BME280_pressure;Samples;Min_cycle;Max_cycle;Signal;HPM_P1;HPM_P2
2023/10/31 00:00:32;;;;;;;10.43;6.45;;;;;;;9.60;61.10;99391.25;5006017;28;20173;-76
2023/10/31 00:02:58;;;;;;;11.75;6.60;;;;;;;9.58;61.25;99387.91;5008185;28;20052;-71
2023/10/31 00:05:23;;;;;;;8.77;6.80;;;;;;;9.53;61.17;99380.34;5007529;28;20466;-71
2023/10/31 00:07:49;;;;;;;9.80;5.78;;;;;;;9.57;61.24;99379.25;5008752;28;20050;-71
2023/10/31 00:10:14;;;;;;;8.68;5.82;;;;;;;9.51;61.20;99377.00;4999803;28;20053;-72
2023/10/31 00:12:40;;;;;;;10.23;6.50;;;;;;;9.40;61.55;99369.81;4998134;28;20565;-71
2023/10/31 00:15:06;;;;;;;13.10;7.53;;;;;;;9.34;61.95;99367.56;5002589;28;20037;-72
2023/10/31 00:17:31;;;;;;;12.00;7.90;;;;;;;9.33;61.99;99367.66;4998463;28;20484;-72
2023/10/31 00:19:57;;;;;;;13.05;6.45;;;;;;;9.29;61.94;99361.78;5004173;28;20099;-72
2023/10/31 00:22:22;;;;;;;9.52;5.90;;;;;;;9.19;62.18;99360.66;4998041;28;20203;-71
2023/10/31 00:24:48;;;;;;;13.05;7.07;;;;;;;9.30;62.07;99358.25;5001121;28;20180;-71
2023/10/31 00:27:14;;;;;;;9.50;6.03;;;;;;;9.25;62.21;99357.66;5002412;28;20045;-71
2023/10/31 00:29:40;;;;;;;10.77;7.03;;;;;;;9.24;62.17;99350.78;4983870;28;21498;-71
2023/10/31 00:32:05;;;;;;;10.57;7.22;;;;;;;9.27;62.12;99357.59;4999185;28;20037;-73
2023/10/31 00:34:33;;;;;;;13.60;8.13;;;;;;;9.37;61.65;99359.56;4985981;28;20149;-71
2023/10/31 00:36:58;;;;;;;9.02;6.07;;;;;;;9.34;61.96;99354.53;5004093;28;20650;-69
2023/10/31 00:39:24;;;;;;;8.60;6.43;;;;;;;9.43;61.88;99354.91;4998341;28;20099;-69
2023/10/31 00:41:49;;;;;;;7.90;4.68;;;;;;;9.28;61.76;99349.69;5001646;28;20072;-72
2023/10/31 00:44:15;;;;;;;7.90;5.05;;;;;;;9.13;62.08;99347.97;5002043;28;20033;-71
2023/10/31 00:46:40;;;;;;;7.80;5.07;;;;;;;9.23;62.27;99356.06;4998546;28;20041;-72
2023/10/31 00:49:05;;;;;;;9.32;5.28;;;;;;;9.28;61.94;99339.25;4983714;28;20034;-70
2023/10/31 00:51:32;;;;;;;10.60;6.07;;;;;;;9.35;61.54;99340.56;4986683;28;20116;-72
2023/10/31 00:54:00;;;;;;;12.65;6.07;;;;;;;9.24;62.00;99342.97;4989764;28;20041;-71
2023/10/31 00:56:26;;;;;;;8.43;5.93;;;;;;;9.25;62.11;99342.03;4980927;28;20033;-72
2023/10/31 00:58:51;;;;;;;6.88;4.78;;;;;;;9.37;61.51;99349.13;4991558;28;20046;-72
2023/10/31 01:01:17;;;;;;;9.25;5.03;;;;;;;9.24;61.68;99337.75;4984543;28;20022;-72
2023/10/31 01:03:42;;;;;;;10.63;5.57;;;;;;;9.40;61.48;99341.13;5001069;28;20128;-71
2023/10/31 01:06:08;;;;;;;9.95;5.60;;;;;;;9.47;61.34;99332.94;5001785;28;20805;-72
2023/10/31 01:08:34;;;;;;;8.70;4.90;;;;;;;9.46;61.38;99336.50;5005189;28;20037;-72
2023/10/31 01:11:00;;;;;;;12.30;4.97;;;;;;;9.43;61.62;99331.44;5000560;28;20064;-71
2023/10/31 01:13:25;;;;;;;9.95;4.28;;;;;;;9.37;61.60;99330.88;4983623;28;20140;-71
2023/10/31 01:15:51;;;;;;;6.68;4.70;;;;;;;9.34;61.51;99318.03;5003641;28;20034;-71
2023/10/31 01:18:16;;;;;;;6.75;3.65;;;;;;;9.35;61.56;99334.50;5000710;28;20940;-71
2023/10/31 01:20:42;;;;;;;5.32;3.22;;;;;;;9.42;61.28;99332.38;4999193;28;20060;-70
2023/10/31 01:23:08;;;;;;;5.60;3.58;;;;;;;9.50;61.02;99335.34;5005449;28;20211;-72
2023/10/31 01:25:34;;;;;;;6.55;3.17;;;;;;;9.41;61.09;99331.56;4984392;28;20034;-74
2023/10/31 01:27:59;;;;;;;5.95;3.15;;;;;;;9.44;61.19;99322.69;5014472;28;20057;-72
2023/10/31 01:30:24;;;;;;;12.60;3.25;;;;;;;9.46;60.84;99320.84;4983632;28;20034;-73
2023/10/31 01:32:50;;;;;;;5.50;2.90;;;;;;;9.29;61.36;99322.66;4989463;28;20572;-73
2023/10/31 01:35:15;;;;;;;6.32;2.05;;;;;;;9.44;61.11;99322.69;5001423;28;20033;-73
2023/10/31 01:37:41;;;;;;;3.65;2.20;;;;;;;9.47;60.88;99317.28;5000461;28;20461;-68
2023/10/31 01:40:07;;;;;;;7.65;1.98;;;;;;;9.42;61.04;99317.56;5008096;28;20057;-69
2023/10/31 01:42:33;;;;;;;3.30;2.28;;;;;;;9.40;61.18;99322.88;4995040;28;20037;-70
2023/10/31 01:44:58;;;;;;;7.50;1.48;;;;;;;9.40;61.05;99307.22;5000824;28;20042;-70
2023/10/31 01:47:24;;;;;;;3.47;1.92;;;;;;;9.34;61.51;99307.59;4997027;28;20065;-70
2023/10/31 01:49:51;;;;;;;8.70;2.22;;;;;;;9.35;61.34;99298.84;5006658;28;20035;-68
2023/10/31 01:52:17;;;;;;;2.38;1.48;;;;;;;9.31;61.65;99297.34;4998630;28;20077;-68
2023/10/31 01:54:44;;;;;;;3.47;1.67;;;;;;;9.24;61.83;99292.59;4995766;28;20488;-67
2023/10/31 01:57:10;;;;;;;5.88;2.05;;;;;;;9.27;62.12;99284.59;4987751;28;20583;-68
2023/10/31 01:59:36;;;;;;;4.55;1.88;;;;;;;9.29;61.80;99280.94;5010505;28;20037;-68
2023/10/31 02:02:02;;;;;;;5.35;2.63;;;;;;;9.19;62.11;99277.22;5001692;28;20540;-69
2023/10/31 02:04:30;;;;;;;6.97;2.17;;;;;;;9.31;62.13;99276.47;4991127;28;20385;-69
2023/10/31 02:06:55;;;;;;;5.68;2.75;;;;;;;9.38;62.08;99271.75;5002171;28;20069;-69
2023/10/31 02:09:26;;;;;;;8.00;3.50;;;;;;;9.39;61.89;99274.25;4998610;28;20089;-68
2023/10/31 02:11:52;;;;;;;8.50;3.33;;;;;;;9.40;61.92;99265.50;4999432;28;20100;-69
2023/10/31 02:14:18;;;;;;;14.15;3.70;;;;;;;9.40;61.84;99254.22;4999560;28;20522;-69
2023/10/31 02:16:43;;;;;;;8.43;3.90;;;;;;;9.43;61.75;99258.41;4999745;28;20566;-69
2023/10/31 02:19:12;;;;;;;9.70;3.90;;;;;;;9.39;61.93;99253.41;5001921;28;20038;-68
2023/10/31 02:21:39;;;;;;;8.30;4.63;;;;;;;9.44;62.09;99249.69;4987946;28;20156;-68
2023/10/31 02:24:05;;;;;;;11.15;4.90;;;;;;;9.47;62.01;99252.09;4998036;28;20034;-68
2023/10/31 02:26:31;;;;;;;11.90;6.18;;;;;;;9.53;61.70;99254.31;4984714;28;20095;-71
2023/10/31 02:28:57;;;;;;;10.68;4.97;;;;;;;9.53;61.89;99252.56;4986142;28;20046;-70
2023/10/31 02:31:23;;;;;;;11.68;5.35;;;;;;;9.55;61.99;99249.84;4999434;28;20393;-72
2023/10/31 02:33:49;;;;;;;10.48;6.75;;;;;;;9.54;61.92;99245.56;4994252;28;20034;-71
2023/10/31 02:36:14;;;;;;;9.75;5.28;;;;;;;9.54;61.89;99242.94;5005779;28;20580;-71
2023/10/31 02:38:40;;;;;;;11.90;6.38;;;;;;;9.57;61.99;99245.38;5003174;28;20034;-71
2023/10/31 02:41:06;;;;;;;12.25;6.75;;;;;;;9.64;61.93;99230.19;5005042;28;20037;-71
2023/10/31 02:43:31;;;;;;;12.32;6.80;;;;;;;9.61;61.92;99228.63;5003864;28;20037;-70
2023/10/31 02:45:57;;;;;;;14.05;7.38;;;;;;;9.55;61.60;99226.38;4998463;28;20567;-70
2023/10/31 02:48:23;;;;;;;12.25;6.85;;;;;;;9.56;61.88;99228.03;4997177;28;20049;-69
2023/10/31 02:50:49;;;;;;;14.90;8.32;;;;;;;9.55;61.84;99234.22;4996601;28;21105;-71
2023/10/31 02:53:14;;;;;;;13.60;7.07;;;;;;;9.58;61.95;99247.88;4997699;28;20646;-71
2023/10/31 02:55:40;;;;;;;12.00;7.78;;;;;;;9.59;62.02;99243.53;4995537;28;20334;-70
2023/10/31 02:58:05;;;;;;;11.75;7.13;;;;;;;9.61;62.05;99236.44;4998196;28;20144;-69
2023/10/31 03:00:31;;;;;;;14.93;8.02;;;;;;;9.69;62.07;99234.19;4985035;28;20217;-70
2023/10/31 03:02:56;;;;;;;15.52;9.63;;;;;;;9.72;62.01;99234.00;4998151;28;20159;-69
2023/10/31 03:05:21;;;;;;;17.35;9.75;;;;;;;9.70;61.72;99235.88;4999296;28;20671;-69
2023/10/31 03:07:47;;;;;;;19.17;10.30;;;;;;;9.70;61.96;99230.66;4995669;28;20582;-69
2023/10/31 03:10:12;;;;;;;16.05;9.68;;;;;;;9.67;61.64;99238.66;5007868;28;20069;-76
2023/10/31 03:12:38;;;;;;;17.00;9.80;;;;;;;9.66;61.82;99231.78;4985462;28;20071;-74
2023/10/31 03:15:04;;;;;;;20.33;10.32;;;;;;;9.75;61.96;99228.59;4994190;28;20038;-74
2023/10/31 03:17:29;;;;;;;18.10;10.32;;;;;;;9.73;61.90;99230.44;5008333;28;20107;-73
2023/10/31 03:19:55;;;;;;;17.23;10.70;;;;;;;9.75;61.74;99223.38;5004104;28;20067;-71
2023/10/31 03:22:21;;;;;;;20.02;10.52;;;;;;;9.70;61.93;99217.59;5005868;28;20061;-74
2023/10/31 03:24:46;;;;;;;20.73;11.05;;;;;;;9.70;61.79;99220.22;5001591;28;20040;-73
2023/10/31 03:27:12;;;;;;;20.52;11.20;;;;;;;9.68;61.98;99211.66;5001480;28;20095;-72
2023/10/31 03:29:37;;;;;;;15.50;9.38;;;;;;;9.71;61.86;99216.66;5002016;28;20462;-72
2023/10/31 03:32:04;;;;;;;18.67;10.32;;;;;;;9.69;61.86;99208.09;4993163;28;20034;-72
2023/10/31 03:34:30;;;;;;;18.40;11.15;;;;;;;9.65;61.93;99209.22;5001666;28;20105;-69
2023/10/31 03:36:56;;;;;;;15.88;10.30;;;;;;;9.63;61.87;99210.25;4992232;28;20480;-68
2023/10/31 03:39:21;;;;;;;18.20;9.88;;;;;;;9.69;61.98;99210.69;5001458;28;20277;-70
2023/10/31 03:41:47;;;;;;;23.58;10.70;;;;;;;9.65;61.91;99204.00;5001121;28;20464;-70
2023/10/31 03:44:13;;;;;;;19.77;10.73;;;;;;;9.63;62.00;99202.41;5003230;28;20040;-70
2023/10/31 03:46:38;;;;;;;17.90;8.95;;;;;;;9.65;61.98;99205.78;5002201;28;20470;-69
2023/10/31 03:49:05;;;;;;;19.35;10.25;;;;;;;9.49;62.26;99200.69;5002631;28;20141;-70
2023/10/31 03:51:30;;;;;;;12.10;7.10;;;;;;;9.31;62.30;99210.47;5001661;28;20401;-69
2023/10/31 03:53:56;;;;;;;10.65;4.78;;;;;;;9.23;62.91;99210.94;5002212;28;20099;-69
2023/10/31 03:56:22;;;;;;;6.55;2.90;;;;;;;9.14;62.80;99211.47;5002998;28;20030;-70
2023/10/31 03:58:47;;;;;;;4.45;1.25;;;;;;;8.70;63.78;99210.59;4998824;28;20127;-70
2023/10/31 04:01:13;;;;;;;2.97;0.90;;;;;;;8.76;63.49;99214.59;5001052;28;20039;-70
2023/10/31 04:03:38;;;;;;;3.75;0.95;;;;;;;8.80;63.61;99207.47;4997433;28;20065;-71
2023/10/31 04:06:05;;;;;;;6.00;0.50;;;;;;;8.59;63.88;99209.53;5000784;28;20030;-69
2023/10/31 04:08:30;;;;;;;6.15;0.50;;;;;;;8.55;63.84;99207.09;4999751;28;20044;-70
2023/10/31 04:10:56;;;;;;;2.53;0.22;;;;;;;8.64;63.57;99205.72;4997091;28;20040;-71
2023/10/31 04:13:21;;;;;;;3.10;0.30;;;;;;;8.43;63.86;99205.22;5003238;28;20118;-70
2023/10/31 04:15:52;;;;;;;4.40;0.20;;;;;;;8.20;64.56;99210.88;5004262;28;20073;-70
2023/10/31 04:18:17;;;;;;;11.93;0.43;;;;;;;7.93;65.38;99217.53;5000868;28;20057;-70
2023/10/31 04:20:43;;;;;;;9.82;0.75;;;;;;;8.14;64.76;99220.72;4997090;28;20038;-70
2023/10/31 04:23:08;;;;;;;3.28;0.25;;;;;;;8.25;64.44;99227.06;5000394;28;20769;-70
2023/10/31 04:25:34;;;;;;;5.47;0.80;;;;;;;8.11;64.99;99223.50;5006649;28;20037;-69
2023/10/31 04:28:00;;;;;;;4.13;0.47;;;;;;;7.82;65.85;99225.09;5005590;28;20041;-70
2023/10/31 04:30:26;;;;;;;6.72;0.40;;;;;;;7.77;65.56;99231.50;5009594;28;20079;-69
2023/10/31 04:32:51;;;;;;;2.72;0.40;;;;;;;7.72;65.66;99235.16;4995728;28;20084;-70
2023/10/31 04:35:17;;;;;;;4.22;0.40;;;;;;;7.70;65.54;99224.00;5002805;28;20504;-70
2023/10/31 04:37:43;;;;;;;8.93;0.60;;;;;;;7.62;65.21;99236.56;4994390;28;20133;-71
2023/10/31 04:40:10;;;;;;;4.13;0.30;;;;;;;7.18;66.14;99231.97;5001802;28;20038;-70
2023/10/31 04:42:41;;;;;;;2.63;0.98;;;;;;;7.28;65.56;99234.91;4997994;28;20113;-70
2023/10/31 04:45:07;;;;;;;4.50;0.30;;;;;;;7.21;66.04;99229.19;5006832;28;20034;-70
2023/10/31 04:47:33;;;;;;;4.35;0.47;;;;;;;7.33;65.80;99228.56;4996445;28;20040;-69
2023/10/31 04:49:59;;;;;;;6.28;0.50;;;;;;;7.39;65.51;99232.59;5000254;28;20042;-71
2023/10/31 04:52:25;;;;;;;5.97;0.40;;;;;;;7.52;65.10;99240.56;5002806;28;20033;-70
2023/10/31 04:54:51;;;;;;;12.30;0.70;;;;;;;7.38;65.84;99240.44;4998289;28;20725;-71
2023/10/31 04:57:19;;;;;;;8.55;0.35;;;;;;;7.29;66.22;99242.63;5001971;28;20029;-70
2023/10/31 04:59:45;;;;;;;5.85;0.38;;;;;;;7.37;66.20;99244.81;4987484;28;20041;-72
2023/10/31 05:02:10;;;;;;;13.00;0.50;;;;;;;7.51;65.92;99251.88;4987257;28;20110;-69
2023/10/31 05:04:40;;;;;;;6.10;1.02;;;;;;;7.50;65.77;99264.03;4997865;28;20562;-70
2023/10/31 05:07:05;;;;;;;3.63;0.38;;;;;;;7.37;66.15;99264.78;4999978;28;20725;-72
2023/10/31 05:09:31;;;;;;;10.82;0.40;;;;;;;7.67;65.25;99273.59;4999835;28;20145;-68
2023/10/31 05:11:56;;;;;;;5.38;0.43;;;;;;;7.51;65.55;99277.88;5000097;28;20370;-68
2023/10/31 05:14:22;;;;;;;3.47;0.30;;;;;;;7.57;65.30;99277.59;5001050;28;20030;-68
2023/10/31 05:16:47;;;;;;;11.30;0.77;;;;;;;7.20;66.17;99284.69;4998869;28;20029;-68
2023/10/31 05:19:13;;;;;;;2.05;0.25;;;;;;;7.20;66.59;99289.03;4999677;28;20112;-69
2023/10/31 05:21:38;;;;;;;11.00;0.43;;;;;;;7.09;66.35;99305.19;4998507;28;20507;-70
2023/10/31 05:24:05;;;;;;;4.20;0.63;;;;;;;7.33;65.83;99305.66;4990270;28;20152;-68
2023/10/31 05:26:30;;;;;;;4.78;0.10;;;;;;;7.50;65.18;99308.25;4998920;28;20026;-65
2023/10/31 05:28:57;;;;;;;9.35;0.65;;;;;;;6.98;66.08;99321.31;4996553;28;20057;-73
2023/10/31 05:31:24;;;;;;;5.38;0.30;;;;;;;7.26;65.15;99320.75;5001257;28;20036;-73
2023/10/31 05:33:51;;;;;;;4.95;0.80;;;;;;;7.43;64.64;99322.47;4995653;28;20045;-70
2023/10/31 05:36:23;;;;;;;7.75;0.43;;;;;;;7.45;64.49;99333.66;5000558;28;20041;-70
2023/10/31 05:38:49;;;;;;;5.63;0.45;;;;;;;7.56;64.64;99332.25;4993939;28;20042;-72
2023/10/31 05:41:15;;;;;;;5.22;0.30;;;;;;;7.54;64.77;99340.13;5000224;28;20045;-71
2023/10/31 05:43:41;;;;;;;2.92;0.30;;;;;;;7.69;64.07;99341.09;4995546;28;20060;-71
2023/10/31 05:46:10;;;;;;;4.93;0.55;;;;;;;7.58;64.60;99354.69;5002524;28;20053;-75
2023/10/31 05:48:39;;;;;;;0.80;0.30;;;;;;;7.46;65.33;99360.47;4998369;28;20042;-74
2023/10/31 05:51:12;;;;;;;2.97;0.30;;;;;;;7.57;65.31;99367.75;4997177;28;20046;-75
2023/10/31 05:53:39;;;;;;;4.93;0.57;;;;;;;7.67;65.25;99369.81;4998909;28;20612;-73
2023/10/31 05:56:05;;;;;;;4.63;1.05;;;;;;;7.57;65.30;99378.16;4999473;28;20480;-76
2023/10/31 05:58:30;;;;;;;3.17;1.08;;;;;;;7.60;65.21;99385.78;4999210;28;20042;-71
2023/10/31 06:00:56;;;;;;;2.97;0.28;;;;;;;7.62;65.43;99390.00;4995938;28;20481;-75
2023/10/31 06:03:21;;;;;;;1.20;0.20;;;;;;;7.79;64.65;99391.75;4992482;28;20041;-72
2023/10/31 06:05:47;;;;;;;3.78;0.50;;;;;;;7.44;64.96;99396.09;4996440;28;20037;-72
2023/10/31 06:08:12;;;;;;;4.50;0.25;;;;;;;7.60;64.78;99412.66;4997242;28;20099;-72
2023/10/31 06:10:37;;;;;;;0.73;0.30;;;;;;;7.81;64.16;99409.88;5000033;28;20025;-71
2023/10/31 06:13:03;;;;;;;2.58;0.20;;;;;;;7.65;65.04;99412.44;4999443;28;20045;-71
2023/10/31 06:15:28;;;;;;;4.78;0.30;;;;;;;7.25;65.88;99417.81;4999175;28;20116;-72
2023/10/31 06:17:54;;;;;;;3.38;0.10;;;;;;;7.57;64.97;99418.00;4994042;28;20554;-72
2023/10/31 06:20:19;;;;;;;3.45;0.10;;;;;;;7.30;65.76;99431.44;5000033;28;20651;-74
2023/10/31 06:22:45;;;;;;;1.60;0.10;;;;;;;7.71;64.50;99436.34;4993216;28;20504;-71
2023/10/31 06:25:10;;;;;;;2.50;0.55;;;;;;;7.52;64.63;99432.97;5000984;28;20037;-71
2023/10/31 06:27:36;;;;;;;1.80;0.40;;;;;;;7.41;65.41;99438.69;4996584;28;20097;-73
2023/10/31 06:30:02;;;;;;;2.88;0.30;;;;;;;7.29;65.58;99437.56;5004174;28;20484;-74
2023/10/31 06:32:28;;;;;;;0.55;0.20;;;;;;;6.83;66.44;99437.16;4999822;28;20037;-69
2023/10/31 06:34:53;;;;;;;1.48;0.10;;;;;;;7.38;64.99;99453.59;4993837;28;20092;-72
2023/10/31 06:37:19;;;;;;;7.55;0.38;;;;;;;7.28;65.50;99448.84;4998370;28;20437;-70
2023/10/31 06:39:44;;;;;;;2.75;0.35;;;;;;;7.01;66.13;99463.19;4996885;28;20499;-70
2023/10/31 06:42:10;;;;;;;0.95;0.10;;;;;;;7.04;66.08;99469.09;5000072;28;20034;-72
2023/10/31 06:44:35;;;;;;;0.35;0.10;;;;;;;7.25;65.94;99467.19;4998472;28;20037;-71
2023/10/31 06:47:01;;;;;;;4.28;0.22;;;;;;;7.19;65.88;99475.28;4995424;28;20044;-70
2023/10/31 06:49:26;;;;;;;6.80;0.10;;;;;;;7.36;65.26;99482.28;4999680;28;20034;-70
2023/10/31 06:51:51;;;;;;;1.63;0.05;;;;;;;7.43;64.89;99490.63;4995158;28;20034;-71
2023/10/31 06:54:17;;;;;;;0.95;0.10;;;;;;;7.33;64.65;99488.47;4998356;28;20034;-70
2023/10/31 06:56:42;;;;;;;2.05;0.05;;;;;;;7.11;65.68;99493.03;5003238;28;20040;-70
2023/10/31 06:59:08;;;;;;;6.38;0.22;;;;;;;7.03;65.68;99500.31;4989298;28;20046;-71
2023/10/31 07:01:34;;;;;;;3.22;0.35;;;;;;;6.87;65.54;99495.84;5001352;28;20033;-71
2023/10/31 07:03:59;;;;;;;3.22;0.22;;;;;;;6.93;65.93;99512.03;4994894;28;20057;-69
2023/10/31 07:06:25;;;;;;;1.92;0.10;;;;;;;6.85;66.66;99518.44;4998889;28;20137;-71
2023/10/31 07:08:50;;;;;;;0.32;0.08;;;;;;;6.87;66.29;99523.59;4999219;28;20045;-73
2023/10/31 07:11:16;;;;;;;0.20;0.00;;;;;;;6.82;66.67;99522.94;5002207;28;20049;-73
2023/10/31 07:13:41;;;;;;;2.38;0.40;;;;;;;6.88;66.24;99528.69;5000185;28;20157;-75
2023/10/31 07:16:07;;;;;;;0.10;0.10;;;;;;;6.80;66.17;99530.81;5002326;28;20033;-72
2023/10/31 07:18:32;;;;;;;2.95;0.10;;;;;;;6.75;66.23;99537.13;4999206;28;20026;-70
2023/10/31 07:20:58;;;;;;;3.22;0.10;;;;;;;6.98;65.72;99549.06;4990246;28;20756;-70
2023/10/31 07:23:24;;;;;;;2.97;0.28;;;;;;;7.15;65.40;99546.50;4998942;28;20037;-73
2023/10/31 07:25:49;;;;;;;2.38;0.17;;;;;;;7.31;64.76;99552.69;4994093;28;20439;-73
2023/10/31 07:28:15;;;;;;;1.75;0.20;;;;;;;7.07;65.59;99553.84;4996222;28;20045;-70
2023/10/31 07:30:40;;;;;;;1.38;0.10;;;;;;;7.14;65.00;99547.44;4997737;28;20107;-70
2023/10/31 07:33:06;;;;;;;2.35;0.30;;;;;;;7.07;65.52;99564.22;4993816;28;21094;-70
2023/10/31 07:35:32;;;;;;;0.13;0.10;;;;;;;7.21;65.23;99556.63;5005492;28;20041;-70
2023/10/31 07:37:57;;;;;;;0.90;0.20;;;;;;;7.32;64.50;99558.72;4976897;28;20041;-69
2023/10/31 07:40:23;;;;;;;1.30;0.10;;;;;;;7.50;64.31;99572.59;4989873;28;20117;-70
2023/10/31 07:42:48;;;;;;;1.42;0.10;;;;;;;7.58;63.64;99562.72;4992569;28;20041;-73
2023/10/31 07:45:14;;;;;;;0.60;0.20;;;;;;;7.30;64.80;99571.78;5005563;28;20037;-71
2023/10/31 07:47:39;;;;;;;1.13;0.20;;;;;;;7.56;63.49;99571.47;5000172;28;20248;-74
2023/10/31 07:50:05;;;;;;;0.43;0.20;;;;;;;7.49;64.06;99565.72;4991008;28;21252;-73
2023/10/31 07:52:31;;;;;;;1.05;0.10;;;;;;;7.66;63.47;99575.31;5006642;28;20107;-70
2023/10/31 07:54:57;;;;;;;0.63;0.47;;;;;;;7.73;63.38;99582.78;4995502;28;20535;-70
2023/10/31 07:57:23;;;;;;;0.73;0.20;;;;;;;7.92;63.10;99584.47;5008210;28;20065;-70
2023/10/31 07:59:48;;;;;;;2.13;0.30;;;;;;;7.58;63.95;99588.72;4999107;28;20140;-71
2023/10/31 08:02:13;;;;;;;1.02;0.45;;;;;;;7.79;63.41;99589.41;5006128;28;20052;-71
2023/10/31 08:04:39;;;;;;;0.45;0.10;;;;;;;7.84;63.45;99594.38;5006522;28;20637;-72
2023/10/31 08:07:05;;;;;;;1.55;0.17;;;;;;;7.96;63.53;99591.19;4996771;28;20047;-70
2023/10/31 08:09:30;;;;;;;0.55;0.20;;;;;;;7.80;63.51;99591.13;5002979;28;20488;-70
2023/10/31 08:11:56;;;;;;;1.35;0.00;;;;;;;8.01;62.99;99598.78;4995510;28;20129;-70
2023/10/31 08:14:22;;;;;;;0.32;0.10;;;;;;;8.07;62.83;99594.13;5006737;28;20033;-70
2023/10/31 08:16:47;;;;;;;0.65;0.10;;;;;;;8.00;63.04;99595.31;5001069;28;20037;-68
2023/10/31 08:19:14;;;;;;;0.80;0.10;;;;;;;8.17;62.58;99606.66;5007299;28;20025;-72
2023/10/31 08:21:40;;;;;;;0.32;0.10;;;;;;;8.28;62.46;99614.78;5001620;28;20040;-71
2023/10/31 08:24:05;;;;;;;1.27;0.10;;;;;;;8.05;63.12;99611.56;4995831;28;20046;-70
2023/10/31 08:26:32;;;;;;;0.30;0.05;;;;;;;8.09;63.06;99607.91;5001425;28;20037;-69
2023/10/31 08:28:58;;;;;;;1.65;0.10;;;;;;;8.20;62.69;99609.09;4998308;28;20512;-71
2023/10/31 08:31:24;;;;;;;0.20;0.10;;;;;;;8.13;62.95;99604.19;5007623;28;20038;-71
2023/10/31 08:33:49;;;;;;;0.77;0.15;;;;;;;8.20;62.83;99614.31;4985897;28;20045;-69
2023/10/31 08:36:15;;;;;;;0.95;0.10;;;;;;;8.19;63.10;99617.84;4996073;28;20534;-71
2023/10/31 08:38:40;;;;;;;0.25;0.00;;;;;;;8.26;62.55;99624.41;5001471;28;20151;-73
2023/10/31 08:41:06;;;;;;;1.00;0.03;;;;;;;7.73;64.00;99620.91;4996969;28;20086;-70
2023/10/31 08:43:32;;;;;;;2.05;0.10;;;;;;;8.10;63.16;99635.59;5000544;28;20041;-73
2023/10/31 08:45:58;;;;;;;1.15;0.15;;;;;;;8.21;62.97;99626.41;4998347;28;20030;-70
2023/10/31 08:48:23;;;;;;;0.30;0.10;;;;;;;7.95;63.93;99631.13;4999506;28;20437;-70
2023/10/31 08:50:49;;;;;;;0.60;0.25;;;;;;;8.05;63.47;99644.56;5001633;28;20515;-70
2023/10/31 08:53:14;;;;;;;0.82;0.10;;;;;;;8.00;63.52;99634.34;4994678;28;20041;-73
2023/10/31 08:55:43;;;;;;;0.13;0.08;;;;;;;8.11;63.36;99637.28;5001505;28;20116;-71
2023/10/31 08:58:11;;;;;;;0.85;0.20;;;;;;;7.95;63.89;99646.75;4994784;28;20046;-75
2023/10/31 09:00:36;;;;;;;1.42;0.10;;;;;;;7.99;63.67;99637.03;5001618;28;20038;-71
2023/10/31 09:03:02;;;;;;;1.63;0.20;;;;;;;8.08;63.42;99637.41;4997269;28;20054;-71
2023/10/31 09:05:27;;;;;;;0.35;0.10;;;;;;;8.33;62.61;99639.63;4986791;28;20029;-70
2023/10/31 09:07:53;;;;;;;0.30;0.10;;;;;;;8.42;62.58;99646.16;5000194;28;20484;-71
2023/10/31 09:10:19;;;;;;;3.65;0.30;;;;;;;8.41;62.59;99654.88;5002445;28;20043;-70
2023/10/31 09:12:46;;;;;;;0.40;0.20;;;;;;;8.54;62.62;99650.75;4999081;28;20038;-72
2023/10/31 09:15:13;;;;;;;1.23;0.40;;;;;;;8.04;63.50;99661.91;4993212;28;20067;-69
2023/10/31 09:17:38;;;;;;;1.40;0.40;;;;;;;8.19;63.52;99660.31;5005377;28;20030;-68
2023/10/31 09:20:05;;;;;;;1.73;0.60;;;;;;;8.30;63.15;99659.78;4994287;28;20049;-69
2023/10/31 09:22:30;;;;;;;3.05;0.80;;;;;;;8.28;63.54;99654.66;5002976;28;20041;-68
2023/10/31 09:24:56;;;;;;;3.65;1.10;;;;;;;8.14;63.85;99676.16;4986600;28;20034;-68
2023/10/31 09:27:21;;;;;;;1.40;0.75;;;;;;;8.29;63.85;99665.91;4998168;28;20076;-71
2023/10/31 09:29:47;;;;;;;1.65;1.10;;;;;;;8.72;62.90;99671.59;4996046;28;20029;-69
2023/10/31 09:32:13;;;;;;;1.52;0.65;;;;;;;8.90;62.82;99668.03;4993772;28;20409;-71
2023/10/31 09:34:39;;;;;;;1.10;0.63;;;;;;;8.23;64.07;99681.84;5011754;28;20033;-69
2023/10/31 09:37:06;;;;;;;1.42;0.57;;;;;;;8.62;62.98;99678.16;4993365;28;20045;-69
2023/10/31 09:39:31;;;;;;;1.27;0.52;;;;;;;8.81;62.77;99680.69;5004848;28;20077;-70
2023/10/31 09:41:57;;;;;;;2.08;0.98;;;;;;;9.05;62.35;99684.59;4995788;28;20033;-70
2023/10/31 09:44:23;;;;;;;3.42;1.25;;;;;;;8.76;62.40;99691.34;5003106;28;20045;-69
2023/10/31 09:46:51;;;;;;;1.80;1.10;;;;;;;8.77;62.50;99690.44;4999579;28;20033;-70
2023/10/31 09:49:17;;;;;;;3.60;1.67;;;;;;;8.95;62.14;99692.09;4994314;28;20092;-70
2023/10/31 09:51:43;;;;;;;2.58;1.33;;;;;;;8.87;62.50;99699.44;4997405;28;20718;-70
2023/10/31 09:54:09;;;;;;;4.15;0.85;;;;;;;8.95;62.34;99694.69;4988448;28;20053;-70
2023/10/31 09:56:35;;;;;;;3.80;0.70;;;;;;;9.10;61.84;99703.47;4996874;28;20464;-70
2023/10/31 09:59:02;;;;;;;1.40;0.60;;;;;;;9.04;61.65;99713.38;4991557;28;20049;-70
2023/10/31 10:01:28;;;;;;;4.78;1.02;;;;;;;9.01;62.06;99713.53;4979552;28;20033;-70
2023/10/31 10:03:54;;;;;;;2.15;0.60;;;;;;;8.98;61.79;99720.59;4995586;28;20044;-71
2023/10/31 10:06:23;;;;;;;1.35;0.57;;;;;;;9.16;61.75;99715.34;4990421;28;20535;-69
2023/10/31 10:08:49;;;;;;;2.67;0.50;;;;;;;9.05;61.94;99728.09;4997113;28;20064;-70
2023/10/31 10:11:14;;;;;;;1.02;0.50;;;;;;;8.90;61.93;99735.78;4992029;28;20124;-70
2023/10/31 10:13:40;;;;;;;1.02;0.05;;;;;;;8.47;62.31;99748.34;4995559;28;20218;-70
2023/10/31 10:16:07;;;;;;;2.55;0.30;;;;;;;8.07;63.17;99750.25;4989605;28;20044;-70
2023/10/31 10:18:35;;;;;;;2.40;1.00;;;;;;;7.91;63.45;99770.09;4994970;28;20038;-69
2023/10/31 10:21:04;;;;;;;7.97;0.25;;;;;;;7.80;63.50;99767.13;4990641;28;20057;-70
2023/10/31 10:23:30;;;;;;;3.60;0.08;;;;;;;7.66;63.40;99785.97;4995128;28;20129;-69
2023/10/31 10:25:58;;;;;;;1.17;0.00;;;;;;;7.81;62.92;99794.84;4999126;28;20060;-71
2023/10/31 10:28:29;;;;;;;2.20;0.28;;;;;;;7.61;63.61;99799.19;4991369;28;20045;-69
2023/10/31 10:30:54;;;;;;;4.07;0.22;;;;;;;7.78;62.47;99810.59;5001519;28;20066;-71
2023/10/31 10:33:21;;;;;;;5.82;0.10;;;;;;;7.61;62.44;99814.78;4986809;28;20987;-70
2023/10/31 10:35:46;;;;;;;1.92;0.65;;;;;;;7.18;63.02;99824.44;4995529;28;20507;-69
2023/10/31 10:38:16;;;;;;;8.93;0.22;;;;;;;7.29;62.81;99829.19;4988154;28;20310;-71
2023/10/31 10:40:48;;;;;;;0.47;0.00;;;;;;;7.62;62.04;99839.03;5002587;28;20121;-69
2023/10/31 10:43:20;;;;;;;1.17;0.10;;;;;;;7.30;62.32;99847.28;4989199;28;20107;-67
2023/10/31 10:45:48;;;;;;;2.60;0.10;;;;;;;7.46;62.20;99857.03;4994840;28;20111;-69
2023/10/31 10:48:16;;;;;;;2.47;0.10;;;;;;;7.50;61.54;99853.41;4992374;28;20033;-70
2023/10/31 10:50:45;;;;;;;13.05;0.30;;;;;;;7.25;61.55;99864.00;4998623;28;20029;-70
2023/10/31 10:53:24;;;;;;;2.35;0.10;;;;;;;7.60;60.92;99869.47;4987588;28;20128;-71
2023/10/31 10:55:53;;;;;;;3.50;0.43;;;;;;;7.65;61.13;99870.13;4983744;28;20030;-69
2023/10/31 10:58:27;;;;;;;0.63;0.00;;;;;;;7.64;60.86;99876.22;4988826;28;20117;-68
2023/10/31 11:00:54;;;;;;;0.77;0.00;;;;;;;7.40;61.06;99883.28;4996743;28;20044;-71
2023/10/31 11:03:21;;;;;;;1.08;0.10;;;;;;;7.70;60.04;99884.59;4990177;28;20053;-68
2023/10/31 11:05:47;;;;;;;1.17;0.30;;;;;;;7.49;60.47;99882.91;4996938;28;20035;-71
2023/10/31 11:08:14;;;;;;;0.22;0.10;;;;;;;7.40;60.80;99894.56;4992664;28;20116;-70
2023/10/31 11:10:39;;;;;;;2.65;0.03;;;;;;;7.43;60.48;99899.63;4996879;28;20029;-69
2023/10/31 11:13:06;;;;;;;1.05;0.08;;;;;;;7.31;61.25;99905.31;4992183;28;20034;-71
2023/10/31 11:15:31;;;;;;;2.55;0.03;;;;;;;7.49;60.13;99908.91;5004265;28;20030;-69
2023/10/31 11:17:58;;;;;;;2.35;0.00;;;;;;;7.53;60.32;99910.44;4993815;28;20447;-69
2023/10/31 11:20:24;;;;;;;1.17;0.10;;;;;;;7.62;60.58;99915.28;4992813;28;21754;-71
2023/10/31 11:22:57;;;;;;;0.50;0.20;;;;;;;7.82;59.87;99921.41;4993952;28;20164;-70
2023/10/31 11:25:23;;;;;;;2.95;0.32;;;;;;;7.91;59.07;99936.59;4991618;28;23036;-70
2023/10/31 11:28:10;;;;;;;2.72;0.15;;;;;;;7.41;59.62;99931.78;4994644;28;20042;-70
2023/10/31 11:30:35;;;;;;;1.58;0.10;;;;;;;7.37;59.22;99935.41;5014739;28;20966;-70
2023/10/31 11:33:05;;;;;;;3.53;0.10;;;;;;;7.64;59.20;99949.88;4994480;28;20038;-70